WetterOnline ( https://www.wetteronline.de )

Wetter aktuell Glückstadt

Aktuelles Wetter: Itzehoe (26m)

6-stündlich | Neueste Meldungen
Ortszeit Temperatur Wetter
Mi, 23.09. 14:00 21.4° C fast wolkenlos
Mi, 23.09. 8:00 6.1° C wolkenlos
Mi, 23.09. 2:00 9.1° C wolkenlos
Di, 22.09. 20:00 13.9° C wolkenlos
Di, 22.09. 14:00 22.0° C wolkenlos
Di, 22.09. 8:00 6.8° C wolkenlos
Di, 22.09. 2:00 8.7° C wolkenlos
Mo, 21.09. 20:00 13.9° C wolkenlos
Ortszeit Temperatur Wetter
Mi, 23.09. 15:30 22.0° C wolkig
Mi, 23.09. 15:20 22.0° C wolkig
Mi, 23.09. 15:10 21.7° C leicht bewölkt
Mi, 23.09. 15:00 21.7° C fast wolkenlos
Mi, 23.09. 14:50 21.7° C wolkenlos
Mi, 23.09. 14:40 21.8° C wolkenlos
Mi, 23.09. 14:30 21.3° C wolkenlos
Mi, 23.09. 14:00 21.4° C fast wolkenlos
Mi, 23.09. 13:30 20.9° C wolkenlos
Mi, 23.09. 13:00 21.2° C leicht bewölkt
Mi, 23.09. 12:30 20.4° C wolkig
Mi, 23.09. 12:00 19.9° C wolkig
Ortszeit Relative Feuchte Sichtweite
Mi, 23.09. 14:00 57% 16 km
Mi, 23.09. 8:00 98% 2.4 km
Mi, 23.09. 2:00 100% 5.0 km
Di, 22.09. 20:00 83% 30 km
Di, 22.09. 14:00 48% >70 km
Di, 22.09. 8:00 99% 14 km
Di, 22.09. 2:00 100% 11 km
Mo, 21.09. 20:00 82% 45 km
Ortszeit Relative Feuchte Sichtweite
Mi, 23.09. 15:30 58% 23 km
Mi, 23.09. 15:20 58% -
Mi, 23.09. 15:10 58% -
Mi, 23.09. 15:00 57% 17 km
Mi, 23.09. 14:50 57% -
Mi, 23.09. 14:40 58% -
Mi, 23.09. 14:30 57% 20 km
Mi, 23.09. 14:00 57% 16 km
Mi, 23.09. 13:30 55% 14 km
Mi, 23.09. 13:00 56% 16 km
Mi, 23.09. 12:30 57% 14 km
Mi, 23.09. 12:00 58% 15 km
Ortszeit Niederschlagsmenge Niederschlagsart
Mi, 23.09. 14:00 0.0 l/m2 in 6 Std. -
Mi, 23.09. 8:00 0.0 l/m2 in 12 Std. -
Mi, 23.09. 2:00 0.0 l/m2 in 6 Std. -
Di, 22.09. 20:00 0.0 l/m2 in 12 Std. -
Di, 22.09. 14:00 0.0 l/m2 in 6 Std. -
Di, 22.09. 8:00 0.0 l/m2 in 12 Std. -
Di, 22.09. 2:00 0.0 l/m2 in 6 Std. -
Mo, 21.09. 20:00 0.0 l/m2 in 12 Std. -
Ortszeit Niederschlagsmenge Niederschlagsart
Mi, 23.09. 15:30 0.0 l/m2 in 1 Std. -
Mi, 23.09. 15:20 keine Meldung -
Mi, 23.09. 15:10 keine Meldung -
Mi, 23.09. 15:00 0.0 l/m2 in 1 Std. -
Mi, 23.09. 14:50 keine Meldung -
Mi, 23.09. 14:40 keine Meldung -
Mi, 23.09. 14:30 0.0 l/m2 in 1 Std. -
Mi, 23.09. 14:00 0.0 l/m2 in 1 Std. -
Mi, 23.09. 13:30 0.0 l/m2 in 1 Std. -
Mi, 23.09. 13:00 0.0 l/m2 in 1 Std. -
Mi, 23.09. 12:30 0.0 l/m2 in 1 Std. -
Mi, 23.09. 12:00 0.0 l/m2 in 1 Std. -
Ortszeit Stärke Spitze Richtung
km/h Bft. km/h Grad Sektor
Mi, 23.09. 14:00 9 2 20 210° SW
Mi, 23.09. 8:00 4 1 7 70° O
Mi, 23.09. 2:00 4 1 7 70° O
Di, 22.09. 20:00 4 1 11 10° N
Di, 22.09. 14:00 4 1 11 320° NW
Di, 22.09. 8:00 4 1 4 40° NO
Di, 22.09. 2:00 4 1 7 100° O
Mo, 21.09. 20:00 4 1 14 60° NO
Ortszeit Stärke Spitze Richtung
km/h Bft. km/h Grad Sektor
Mi, 23.09. 15:30 9 2 19 210° SW
Mi, 23.09. 15:20 9 2 - 210° SW
Mi, 23.09. 15:10 9 2 - 230° SW
Mi, 23.09. 15:00 7 2 22 230° SW
Mi, 23.09. 14:50 7 2 - 230° SW
Mi, 23.09. 14:40 7 2 - 210° SW
Mi, 23.09. 14:30 11 2 22 220° SW
Mi, 23.09. 14:00 9 2 20 210° SW
Mi, 23.09. 13:30 7 2 22 220° SW
Mi, 23.09. 13:00 9 2 20 240° SW
Mi, 23.09. 12:30 9 2 20 230° SW
Mi, 23.09. 12:00 11 2 18 240° SW
Ortszeit Untergrenze Bedeckung Gattung
total tief tief mittel hoch
Mi, 23.09. 14:00 4500 m 1/8 1/8 - - -
Mi, 23.09. 8:00 - 0/8 0/8 - - -
Mi, 23.09. 2:00 - 0/8 0/8 - - -
Di, 22.09. 20:00 - 0/8 0/8 - - -
Di, 22.09. 14:00 - 0/8 0/8 - - -
Di, 22.09. 8:00 - 0/8 0/8 - - -
Di, 22.09. 2:00 - 0/8 0/8 - - -
Mo, 21.09. 20:00 - 0/8 0/8 - - -
Ortszeit Bedeckungsgrad in Achtel und Wolkenuntergrenze
Mi, 23.09. 15:30 4(1110m) 5(1320m)
Mi, 23.09. 15:20 4(1110m) 5(1320m)
Mi, 23.09. 15:10 2(1080m)
Mi, 23.09. 15:00 3(1020m)
Mi, 23.09. 14:50 keine Wolken
Mi, 23.09. 14:40 keine Wolken
Mi, 23.09. 14:30 keine Wolken
Mi, 23.09. 14:00 1(4500m)
Mi, 23.09. 13:30 keine Wolken
Mi, 23.09. 13:00 2(1500m) 3(2100m)
Mi, 23.09. 12:30 3(1500m) 4(1800m) 5(4500m)
Mi, 23.09. 12:00 6(4200m) 5(4500m)
Ortszeit Luftdruck NN (hPa) Tendenz (hPa in 3 Std.)
Mi, 23.09. 14:00 1004 - 0,5
Mi, 23.09. 8:00 1004 - 0,2
Mi, 23.09. 2:00 1006 - 1,1
Di, 22.09. 20:00 1007 - 1,2
Di, 22.09. 14:00 1010 - 1,2
Di, 22.09. 8:00 1012 - 0,7
Di, 22.09. 2:00 1014 - 1,3
Mo, 21.09. 20:00 1016 - 0,9
Ortszeit Luftdruck NN (hPa) Tendenz (hPa in 3 Std.)
Mi, 23.09. 15:30 1003 - 0,8
Mi, 23.09. 15:20 1003 keine Meldung
Mi, 23.09. 15:10 1003 keine Meldung
Mi, 23.09. 15:00 1003 - 0,7
Mi, 23.09. 14:50 1003 keine Meldung
Mi, 23.09. 14:40 1003 keine Meldung
Mi, 23.09. 14:30 1004 - 0,5
Mi, 23.09. 14:00 1004 - 0,5
Mi, 23.09. 13:30 1004 - 0,5
Mi, 23.09. 13:00 1004 - 0,2
Mi, 23.09. 12:30 1004 - 0,2
Mi, 23.09. 12:00 1004 + 0,1
Ortszeit Schneehöhe (cm)
Mi, 23.09. 14:00 -
Mi, 23.09. 8:00 -
Mi, 23.09. 2:00 -
Di, 22.09. 20:00 -
Di, 22.09. 14:00 -
Di, 22.09. 8:00 -
Di, 22.09. 2:00 -
Mo, 21.09. 20:00 -
Ortszeit Schneehöhe (cm)
Mi, 23.09. 15:30 -
Mi, 23.09. 15:20 -
Mi, 23.09. 15:10 -
Mi, 23.09. 15:00 -
Mi, 23.09. 14:50 -
Mi, 23.09. 14:40 -
Mi, 23.09. 14:30 -
Mi, 23.09. 14:00 -
Mi, 23.09. 13:30 -
Mi, 23.09. 13:00 -
Mi, 23.09. 12:30 -
Mi, 23.09. 12:00 -
Link zu dieser Seite / Seite empfehlen

Das Wetter in ...